Time;durP1;ratioP1;P1;durP2;ratioP2;P2;SDS_P1;SDS_P2;PMS_P1;PMS_P2;Temp;Humidity;BMP_temperature;BMP_pressure;BME280_temperature;BME280_humidity;BME280_pressure;Samples;Min_cycle;Max_cycle;Signal;HPM_P1;HPM_P2
2021/04/02 00:15:56;;;;;;;14.57;6.00;;;9.10;81.20;;;;;;4935223;29;20050;-85
2021/04/02 00:43:22;;;;;;;10.73;5.20;;;9.00;81.40;;;;;;4785770;29;20086;-85
2021/04/02 01:03:53;;;;;;;12.87;5.37;;;8.90;81.40;;;;;;4838310;29;20517;-85
2021/04/02 01:07:26;;;;;;;11.33;5.80;;;8.70;81.80;;;;;;4896020;29;20543;-86
2021/04/02 01:11:08;;;;;;;16.83;6.00;;;8.60;82.60;;;;;;4952279;29;20126;-85
2021/04/02 01:14:51;;;;;;;11.17;5.57;;;8.40;83.60;;;;;;4914723;29;20127;-84
2021/04/02 01:18:15;;;;;;;11.33;5.70;;;8.50;83.10;;;;;;4858603;29;20052;-85
2021/04/02 02:38:48;;;;;;;11.50;5.00;;;8.10;85.10;;;;;;5071697;28;20171;-85
2021/04/02 02:41:14;;;;;;;9.33;4.80;;;8.00;85.10;;;;;;5053488;28;20032;-86
2021/04/02 02:43:40;;;;;;;9.00;4.43;;;8.10;84.90;;;;;;5071758;28;20421;-85
2021/04/02 02:46:06;;;;;;;12.57;4.83;;;8.20;84.50;;;;;;5071859;28;20164;-85
2021/04/02 02:48:32;;;;;;;10.93;5.10;;;8.30;84.10;;;;;;5070402;28;20028;-85
2021/04/02 02:50:59;;;;;;;11.67;5.40;;;8.30;84.10;;;;;;5070403;28;20029;-85
2021/04/02 02:53:28;;;;;;;12.40;4.67;;;8.10;84.40;;;;;;5071313;28;20070;-85
2021/04/02 02:55:54;;;;;;;13.00;4.93;;;7.90;85.10;;;;;;5053946;28;20024;-85
2021/04/02 02:58:24;;;;;;;9.67;4.50;;;7.90;86.20;;;;;;5053762;28;20028;-85
2021/04/02 03:00:50;;;;;;;12.02;4.95;;;8.00;85.50;;;;;;5071570;28;20103;-85
2021/04/02 03:03:18;;;;;;;11.50;5.00;;;8.10;85.30;;;;;;5053776;28;20028;-84
2021/04/02 03:05:47;;;;;;;13.00;4.90;;;8.00;85.50;;;;;;5075503;28;20013;-85
2021/04/02 03:08:16;;;;;;;11.32;4.95;;;8.00;85.50;;;;;;5075714;28;20094;-85
2021/04/02 03:10:43;;;;;;;11.85;4.40;;;7.80;86.10;;;;;;5074725;28;20017;-85
2021/04/02 03:13:08;;;;;;;10.13;4.90;;;7.80;87.30;;;;;;5075095;28;20017;-84
2021/04/02 03:15:35;;;;;;;12.23;4.60;;;7.80;86.60;;;;;;5075226;28;20016;-85
2021/04/02 03:18:05;;;;;;;10.50;4.63;;;7.90;86.20;;;;;;5075071;28;20024;-85
2021/04/02 03:20:34;;;;;;;11.83;4.63;;;8.00;86.00;;;;;;5056495;28;20504;-85
2021/04/02 03:23:00;;;;;;;11.00;4.25;;;8.00;85.60;;;;;;5056953;28;20532;-85
2021/04/02 03:25:28;;;;;;;11.13;4.57;;;8.00;85.60;;;;;;5075004;28;20161;-85
2021/04/02 03:27:55;;;;;;;10.00;4.03;;;8.10;85.30;;;;;;5074970;28;20025;-85
2021/04/02 03:30:23;;;;;;;12.03;4.47;;;8.00;86.20;;;;;;5056314;28;20432;-85
2021/04/02 03:32:55;;;;;;;11.15;4.80;;;8.10;85.60;;;;;;5056634;28;20432;-85
2021/04/02 03:35:22;;;;;;;14.27;4.33;;;8.10;85.30;;;;;;5056976;28;20029;-84
2021/04/02 03:37:51;;;;;;;10.37;5.27;;;8.00;85.90;;;;;;5056581;28;20408;-84
2021/04/02 03:40:20;;;;;;;12.20;4.20;;;7.90;86.10;;;;;;5072923;28;20119;-84
2021/04/02 03:42:51;;;;;;;14.07;4.57;;;7.80;86.20;;;;;;5056639;28;20102;-85
2021/04/02 03:45:17;;;;;;;12.93;4.97;;;7.80;86.50;;;;;;5074565;28;20063;-85
2021/04/02 03:47:45;;;;;;;13.10;4.83;;;7.80;86.60;;;;;;5074624;28;20032;-85
2021/04/02 03:50:14;;;;;;;12.83;4.77;;;7.80;86.20;;;;;;5073945;28;20032;-85
2021/04/02 03:53:10;;;;;;;12.23;4.80;;;7.90;85.90;;;;;;5056501;28;20029;-84
2021/04/02 03:55:40;;;;;;;9.40;4.57;;;8.00;85.50;;;;;;5074530;28;20154;-85
2021/04/02 03:58:09;;;;;;;10.67;4.37;;;8.00;85.20;;;;;;5074484;28;20024;-84
2021/04/02 04:00:44;;;;;;;12.13;4.78;;;7.90;85.20;;;;;;5073749;28;20021;-85
2021/04/02 04:03:12;;;;;;;13.03;4.93;;;7.80;85.60;;;;;;5074219;28;20474;-84
2021/04/02 04:05:39;;;;;;;10.43;4.43;;;7.90;85.50;;;;;;5074247;28;20028;-84
2021/04/02 04:08:10;;;;;;;14.13;4.70;;;7.70;86.10;;;;;;5074163;28;20036;-84
2021/04/02 04:10:36;;;;;;;12.33;5.00;;;7.70;86.20;;;;;;5073634;28;20036;-85
2021/04/02 04:13:04;;;;;;;11.80;4.43;;;7.70;86.10;;;;;;5056149;28;20028;-85
2021/04/02 04:15:30;;;;;;;10.83;4.87;;;7.70;85.80;;;;;;5073625;28;20025;-85
2021/04/02 04:17:57;;;;;;;11.23;4.83;;;7.70;85.90;;;;;;5056109;28;20370;-85
2021/04/02 04:20:24;;;;;;;11.43;4.63;;;7.80;85.40;;;;;;5055354;28;20034;-85
2021/04/02 04:22:51;;;;;;;9.10;4.80;;;7.90;85.40;;;;;;5055901;28;20024;-85
2021/04/02 04:25:23;;;;;;;15.30;5.47;;;7.80;85.60;;;;;;5074322;28;20032;-85
2021/04/02 04:27:50;;;;;;;16.83;6.20;;;7.40;87.10;;;;;;5073974;28;20029;-85
2021/04/02 04:30:17;;;;;;;13.87;6.20;;;7.50;86.90;;;;;;5073357;28;20024;-85
2021/04/02 04:32:43;;;;;;;15.83;6.20;;;7.50;87.10;;;;;;5073583;28;20436;-84
2021/04/02 04:35:12;;;;;;;15.53;7.57;;;7.70;86.20;;;;;;5072351;28;20017;-85
2021/04/02 04:37:40;;;;;;;15.88;6.07;;;7.70;86.10;;;;;;5073541;28;20021;-85
2021/04/02 04:40:08;;;;;;;17.08;5.95;;;7.60;86.10;;;;;;5055345;28;20033;-84
2021/04/02 04:42:35;;;;;;;21.27;6.10;;;7.50;86.60;;;;;;5072205;28;20025;-85
2021/04/02 04:45:02;;;;;;;15.10;6.07;;;7.40;86.90;;;;;;5073528;28;20214;-85
2021/04/02 04:47:28;;;;;;;21.17;6.03;;;7.00;88.90;;;;;;5055785;28;20028;-84
2021/04/02 04:49:54;;;;;;;13.87;5.87;;;7.00;89.20;;;;;;5072806;28;20487;-84
2021/04/02 04:52:21;;;;;;;16.80;7.40;;;7.20;88.90;;;;;;5055405;28;20432;-85
2021/04/02 04:54:51;;;;;;;19.70;6.17;;;7.20;88.30;;;;;;5073399;28;20151;-85
2021/04/02 04:57:19;;;;;;;14.63;5.53;;;7.30;87.90;;;;;;5073338;28;20024;-85
2021/04/02 04:59:46;;;;;;;16.70;6.20;;;7.30;87.70;;;;;;5071406;28;20039;-85
2021/04/02 05:02:12;;;;;;;15.87;5.67;;;7.10;87.80;;;;;;5073146;28;20036;-85
2021/04/02 05:04:39;;;;;;;15.63;6.03;;;7.20;88.60;;;;;;5073085;28;20111;-84
2021/04/02 05:07:08;;;;;;;17.47;5.83;;;7.30;88.00;;;;;;5073223;28;20422;-84
2021/04/02 05:09:35;;;;;;;16.50;6.20;;;7.30;88.30;;;;;;5054763;28;20151;-85
2021/04/02 05:12:01;;;;;;;16.43;5.07;;;7.10;88.90;;;;;;5073170;28;20028;-84
2021/04/02 05:14:28;;;;;;;16.47;5.73;;;7.20;88.50;;;;;;5055292;28;20492;-85
2021/04/02 05:16:55;;;;;;;15.13;5.30;;;7.00;89.30;;;;;;5055186;28;20034;-84
2021/04/02 05:19:21;;;;;;;11.97;4.87;;;6.80;90.10;;;;;;5054441;28;20025;-85
2021/04/02 05:21:47;;;;;;;11.33;4.80;;;7.10;89.30;;;;;;5072992;28;20028;-85
2021/04/02 05:24:13;;;;;;;19.47;5.13;;;7.20;89.10;;;;;;5055019;28;20021;-85
2021/04/02 05:26:39;;;;;;;15.53;5.00;;;7.20;88.70;;;;;;5054951;28;20618;-84
2021/04/02 05:29:05;;;;;;;12.67;4.63;;;7.40;88.50;;;;;;5053614;28;20032;-84
2021/04/02 05:31:32;;;;;;;13.07;4.17;;;7.40;88.30;;;;;;5054915;28;20054;-85
2021/04/02 05:33:58;;;;;;;17.77;4.67;;;7.40;88.00;;;;;;5054757;28;20112;-85
2021/04/02 05:36:23;;;;;;;17.37;4.60;;;7.40;88.40;;;;;;5072627;28;20485;-85
2021/04/02 05:38:49;;;;;;;19.47;5.40;;;7.20;88.80;;;;;;5054381;28;20120;-84
2021/04/02 05:41:22;;;;;;;16.07;5.77;;;7.00;90.20;;;;;;5072360;28;20101;-85
2021/04/02 05:43:55;;;;;;;28.17;9.33;;;7.10;90.00;;;;;;5072814;28;20024;-84
2021/04/02 05:46:24;;;;;;;29.23;12.10;;;6.80;90.40;;;;;;5071230;28;20025;-85
2021/04/02 05:48:58;;;;;;;;;;;6.80;90.60;;;;;;5054594;28;20397;-85
2021/04/02 05:51:26;;;;;;;27.33;11.10;;;7.10;90.20;;;;;;5054386;28;19915;-85
2021/04/02 05:53:54;;;;;;;24.97;10.03;;;7.10;90.40;;;;;;5054412;28;20028;-85
2021/04/02 05:56:19;;;;;;;22.70;9.67;;;7.00;90.60;;;;;;5072595;28;20021;-85
2021/04/02 05:58:45;;;;;;;25.30;8.77;;;7.10;90.50;;;;;;5054943;28;20564;-85
2021/04/02 06:01:11;;;;;;;19.43;7.43;;;7.20;90.20;;;;;;5053992;28;20024;-85
2021/04/02 06:03:38;;;;;;;17.90;7.27;;;7.30;90.30;;;;;;5054314;28;20031;-85
2021/04/02 06:06:04;;;;;;;21.33;6.27;;;7.40;90.10;;;;;;5054661;28;20078;-84
2021/04/02 06:08:31;;;;;;;17.40;6.60;;;7.50;90.10;;;;;;5054621;28;20431;-85
2021/04/02 06:10:56;;;;;;;18.13;7.07;;;7.50;90.00;;;;;;5053665;28;20028;-85
2021/04/02 06:13:23;;;;;;;18.33;6.57;;;7.60;90.00;;;;;;5054160;28;20044;-85
2021/04/02 06:15:48;;;;;;;20.83;7.43;;;7.60;90.00;;;;;;5072759;28;20021;-84
2021/04/02 06:18:14;;;;;;;19.33;8.60;;;7.70;89.60;;;;;;5074171;28;20424;-85
2021/04/02 06:20:43;;;;;;;27.03;12.73;;;7.70;90.00;;;;;;5073617;28;20028;-85
2021/04/02 06:23:13;;;;;;;30.67;14.43;;;7.70;89.70;;;;;;5073910;28;20024;-85
2021/04/02 06:26:01;;;;;;;30.43;14.60;;;7.80;89.50;;;;;;5056290;28;20036;-85
2021/04/02 06:28:29;;;;;;;28.57;13.77;;;7.70;90.00;;;;;;5074998;28;20028;-85
2021/04/02 06:31:03;;;;;;;32.70;11.87;;;7.70;90.10;;;;;;5074616;28;20029;-85
2021/04/02 06:33:43;;;;;;;22.33;9.27;;;7.70;90.00;;;;;;5055918;28;20050;-85
2021/04/02 06:36:26;;;;;;;19.43;9.17;;;7.60;90.30;;;;;;5074099;28;20025;-85
2021/04/02 06:38:58;;;;;;;25.60;11.03;;;7.60;90.10;;;;;;5056711;28;20028;-85
2021/04/02 06:41:26;;;;;;;24.87;12.43;;;7.60;90.10;;;;;;5078317;28;20080;-85
2021/04/02 06:43:56;;;;;;;31.07;16.63;;;7.60;90.30;;;;;;5060102;28;20028;-85
2021/04/02 06:46:26;;;;;;;36.77;19.97;;;7.60;90.00;;;;;;5060757;28;20056;-85
2021/04/02 06:48:52;;;;;;;32.83;18.70;;;7.50;90.50;;;;;;5076994;28;20445;-85
2021/04/02 06:51:20;;;;;;;40.20;20.70;;;7.40;90.50;;;;;;5079440;28;20025;-85
2021/04/02 06:53:48;;;;;;;36.60;20.10;;;7.60;90.20;;;;;;5061024;28;20021;-84
2021/04/02 06:56:15;;;;;;;33.80;15.83;;;7.50;90.30;;;;;;5078062;28;20020;-85
2021/04/02 06:58:42;;;;;;;35.33;15.27;;;7.60;90.00;;;;;;5078379;28;20338;-84
2021/04/02 07:01:09;;;;;;;31.97;16.63;;;7.50;90.10;;;;;;5078767;28;20394;-84
2021/04/02 07:03:36;;;;;;;34.63;18.50;;;7.50;90.30;;;;;;5059910;28;20366;-84
2021/04/02 07:06:05;;;;;;;46.47;22.10;;;7.40;90.60;;;;;;5077884;28;20024;-84
2021/04/02 07:08:33;;;;;;;47.25;23.52;;;7.10;91.10;;;;;;5075971;28;20048;-84
2021/04/02 07:11:00;;;;;;;43.33;24.07;;;7.30;90.90;;;;;;5057215;28;20024;-84
2021/04/02 07:13:28;;;;;;;44.37;24.30;;;7.20;90.40;;;;;;5075283;28;20469;-85
2021/04/02 07:15:55;;;;;;;44.40;22.70;;;7.10;90.80;;;;;;5057540;28;20047;-84
2021/04/02 07:18:21;;;;;;;49.17;23.77;;;7.20;91.10;;;;;;5057376;28;20032;-86
2021/04/02 07:20:48;;;;;;;52.70;26.47;;;7.20;90.60;;;;;;5056840;28;20028;-84
2021/04/02 07:23:14;;;;;;;52.67;28.77;;;7.20;90.30;;;;;;5074271;28;20028;-84
2021/04/02 07:25:40;;;;;;;55.87;29.70;;;7.30;90.60;;;;;;5075271;28;20086;-84
2021/04/02 07:28:07;;;;;;;51.27;27.13;;;7.10;90.80;;;;;;5057341;28;20029;-84
2021/04/02 07:30:35;;;;;;;50.87;25.90;;;7.20;90.80;;;;;;5056802;28;20467;-84
2021/04/02 07:33:06;;;;;;;46.10;24.43;;;7.30;90.50;;;;;;5056576;28;20681;-85
2021/04/02 07:35:32;;;;;;;44.60;23.57;;;7.30;90.50;;;;;;5076674;28;20119;-85
2021/04/02 07:38:00;;;;;;;42.30;23.07;;;7.40;90.20;;;;;;5076360;28;20025;-85
2021/04/02 07:40:30;;;;;;;42.50;20.50;;;7.60;90.10;;;;;;5057773;28;20032;-85
2021/04/02 07:42:59;;;;;;;36.50;19.80;;;7.60;89.50;;;;;;5075705;28;20440;-85
2021/04/02 07:45:36;;;;;;;38.57;19.60;;;7.70;89.30;;;;;;5057675;28;20508;-85
2021/04/02 07:48:24;;;;;;;45.97;22.43;;;7.70;89.20;;;;;;5057488;28;20054;-87
2021/04/02 07:50:53;;;;;;;44.33;24.03;;;7.80;89.20;;;;;;5074078;28;20033;-85
2021/04/02 07:53:27;;;;;;;46.77;26.13;;;7.50;89.50;;;;;;5075736;28;20104;-85
2021/04/02 07:55:55;;;;;;;48.20;23.67;;;7.40;90.30;;;;;;5057320;28;20021;-84
2021/04/02 07:58:26;;;;;;;38.00;22.37;;;7.60;89.60;;;;;;5075203;28;20046;-85
2021/04/02 08:00:53;;;;;;;41.63;22.27;;;7.70;89.40;;;;;;5073464;28;20537;-85
2021/04/02 08:03:22;;;;;;;41.27;23.77;;;7.80;88.50;;;;;;5074034;28;20031;-85
2021/04/02 08:05:54;;;;;;;34.35;21.77;;;7.90;88.40;;;;;;5075437;28;20023;-84
2021/04/02 08:08:20;;;;;;;33.80;18.93;;;7.70;88.70;;;;;;5074795;28;20033;-84
2021/04/02 08:11:06;;;;;;;30.37;16.37;;;7.80;88.60;;;;;;5056808;28;20031;-84
2021/04/02 08:13:45;;;;;;;28.03;16.00;;;7.80;88.20;;;;;;5074925;28;20125;-85
2021/04/02 08:16:29;;;;;;;27.88;16.92;;;7.90;88.10;;;;;;5056776;28;20028;-85
2021/04/02 08:19:08;;;;;;;27.17;16.87;;;7.90;87.60;;;;;;5056474;28;20033;-84
2021/04/02 08:21:36;;;;;;;33.42;20.83;;;8.00;87.30;;;;;;5075112;28;20036;-85
2021/04/02 08:24:06;;;;;;;33.90;21.30;;;8.10;86.90;;;;;;5074636;28;20494;-85
2021/04/02 08:26:34;;;;;;;35.43;20.00;;;8.10;86.90;;;;;;5073429;28;20112;-84
2021/04/02 08:29:00;;;;;;;30.03;19.47;;;8.10;87.10;;;;;;5074246;28;20025;-85
2021/04/02 08:31:26;;;;;;;27.93;17.47;;;8.20;87.10;;;;;;5074225;28;20106;-88
2021/04/02 08:33:54;;;;;;;29.73;17.97;;;8.20;87.00;;;;;;5074564;28;20044;-85
2021/04/02 08:36:20;;;;;;;29.43;17.20;;;8.10;86.40;;;;;;5074593;28;20377;-85
2021/04/02 08:38:47;;;;;;;31.83;19.53;;;8.10;87.10;;;;;;5074471;28;20056;-87
2021/04/02 08:41:20;;;;;;;36.63;20.17;;;8.10;86.90;;;;;;5073990;28;20026;-87
2021/04/02 08:43:47;;;;;;;38.20;20.93;;;8.20;86.30;;;;;;5073827;28;20494;-86
2021/04/02 08:46:15;;;;;;;27.07;15.50;;;8.20;86.60;;;;;;5055685;28;20398;-86
2021/04/02 08:48:44;;;;;;;27.10;12.50;;;8.10;86.40;;;;;;5073772;28;20035;-87
2021/04/02 08:51:18;;;;;;;22.92;14.55;;;8.00;86.70;;;;;;5055520;28;20021;-85
2021/04/02 08:53:44;;;;;;;25.83;14.57;;;8.10;86.60;;;;;;5078262;28;20033;-87
2021/04/02 08:56:18;;;;;;;25.20;14.90;;;8.20;86.50;;;;;;5060081;28;20242;-87
2021/04/02 08:58:46;;;;;;;29.03;14.33;;;8.20;86.80;;;;;;5079224;28;20477;-87
2021/04/02 09:01:13;;;;;;;27.70;14.90;;;8.30;86.80;;;;;;5078735;28;20016;-85
2021/04/02 09:03:39;;;;;;;29.53;19.23;;;8.20;86.40;;;;;;5061628;28;20012;-87
2021/04/02 09:06:05;;;;;;;24.57;13.73;;;8.20;86.50;;;;;;5059865;28;20378;-87
2021/04/02 09:08:34;;;;;;;21.47;12.13;;;7.90;87.40;;;;;;5073484;28;20028;-87
2021/04/02 09:11:00;;;;;;;16.08;8.70;;;8.10;87.60;;;;;;5073020;28;20036;-86
2021/04/02 09:13:41;;;;;;;19.57;8.63;;;8.10;87.10;;;;;;5073184;28;20492;-87
2021/04/02 09:16:09;;;;;;;11.17;5.70;;;8.20;86.50;;;;;;5073236;28;20095;-87
2021/04/02 09:18:48;;;;;;;11.27;4.97;;;8.10;86.80;;;;;;5055347;28;20177;-87
2021/04/02 09:21:14;;;;;;;11.77;5.53;;;8.00;87.50;;;;;;5073086;28;20540;-86
2021/04/02 09:23:40;;;;;;;10.93;5.43;;;7.90;88.40;;;;;;5055368;28;20064;-87
2021/04/02 09:26:10;;;;;;;12.93;6.03;;;8.00;88.00;;;;;;5073095;28;20046;-87
2021/04/02 09:28:37;;;;;;;18.25;6.75;;;7.70;88.30;;;;;;5073220;28;20481;-87
2021/04/02 09:31:16;;;;;;;17.13;7.60;;;7.60;89.30;;;;;;5071156;28;20059;-87
2021/04/02 09:33:44;;;;;;;13.43;6.13;;;7.70;88.80;;;;;;5071983;28;20031;-87
2021/04/02 09:36:11;;;;;;;16.77;6.60;;;7.80;88.70;;;;;;5073323;28;20099;-86
2021/04/02 09:38:36;;;;;;;13.80;7.03;;;7.60;89.90;;;;;;5055003;28;20055;-86
2021/04/02 09:41:03;;;;;;;13.93;6.77;;;7.80;88.70;;;;;;5072793;28;20497;-87
2021/04/02 09:43:42;;;;;;;14.40;5.97;;;7.90;87.80;;;;;;5072935;28;20025;-86
2021/04/02 09:46:08;;;;;;;13.82;7.07;;;7.60;88.10;;;;;;5073249;28;20023;-87
2021/04/02 09:48:37;;;;;;;14.37;6.53;;;7.70;88.30;;;;;;5054909;28;20479;-87
2021/04/02 09:51:06;;;;;;;14.77;7.37;;;7.70;88.50;;;;;;5054440;28;20032;-86
2021/04/02 09:53:31;;;;;;;14.80;7.20;;;7.70;88.30;;;;;;5054891;28;20055;-87
2021/04/02 09:55:58;;;;;;;15.47;7.20;;;7.80;88.30;;;;;;5073056;28;20430;-87
2021/04/02 09:58:24;;;;;;;15.87;7.17;;;7.70;88.20;;;;;;5054900;28;20051;-87
2021/04/02 10:00:50;;;;;;;14.90;6.93;;;7.70;88.20;;;;;;5054188;28;20056;-87
2021/04/02 10:03:16;;;;;;;14.17;6.97;;;7.90;87.90;;;;;;5073004;28;20028;-86
2021/04/02 10:05:42;;;;;;;12.30;6.93;;;7.90;87.10;;;;;;5073136;28;20034;-87
2021/04/02 10:08:07;;;;;;;13.57;7.23;;;7.80;87.10;;;;;;5055058;28;20098;-87
2021/04/02 10:10:33;;;;;;;13.17;7.00;;;7.80;87.30;;;;;;5072662;28;20024;-86
2021/04/02 10:13:00;;;;;;;14.47;7.53;;;7.80;86.70;;;;;;5072506;28;20445;-87
2021/04/02 10:15:25;;;;;;;17.27;7.50;;;8.00;86.90;;;;;;5072566;28;20390;-87
2021/04/02 10:17:51;;;;;;;15.00;7.90;;;8.00;86.40;;;;;;5073232;28;20028;-87
2021/04/02 10:20:17;;;;;;;16.40;7.50;;;8.10;86.30;;;;;;5071951;28;20056;-86
2021/04/02 10:22:43;;;;;;;16.40;7.27;;;8.00;87.10;;;;;;5071673;28;20035;-86
2021/04/02 10:25:09;;;;;;;15.10;8.23;;;8.10;86.70;;;;;;5056155;28;20079;-87
2021/04/02 10:27:35;;;;;;;15.00;6.77;;;8.20;86.30;;;;;;5072703;28;20036;-87
2021/04/02 10:30:00;;;;;;;12.33;5.57;;;8.00;86.00;;;;;;5055592;28;20032;-86
2021/04/02 10:32:26;;;;;;;10.50;6.00;;;8.00;85.50;;;;;;5073924;28;20024;-87
2021/04/02 10:34:53;;;;;;;15.23;8.60;;;8.00;85.30;;;;;;5056328;28;20028;-87
2021/04/02 10:37:19;;;;;;;14.47;8.67;;;7.90;84.80;;;;;;5074359;28;20013;-87
2021/04/02 10:39:45;;;;;;;14.50;8.43;;;7.90;85.30;;;;;;5055395;28;20028;-87
2021/04/02 10:42:12;;;;;;;12.03;7.20;;;7.90;85.40;;;;;;5073255;28;20051;-86
2021/04/02 10:44:37;;;;;;;11.07;5.97;;;8.00;85.10;;;;;;5054688;28;20078;-87
2021/04/02 10:47:04;;;;;;;11.63;5.70;;;8.10;84.60;;;;;;5055264;28;20029;-87
2021/04/02 10:49:30;;;;;;;14.17;7.00;;;8.00;84.90;;;;;;5072598;28;20531;-86
2021/04/02 10:51:55;;;;;;;13.90;6.47;;;8.00;84.40;;;;;;5072624;28;20024;-87
2021/04/02 10:54:21;;;;;;;16.60;7.03;;;8.20;83.90;;;;;;5072480;28;20021;-86
2021/04/02 10:56:46;;;;;;;29.30;18.40;;;8.10;83.30;;;;;;5072505;28;20033;-87
2021/04/02 10:59:13;;;;;;;32.30;20.80;;;7.80;84.30;;;;;;5072691;28;20465;-86
2021/04/02 11:01:39;;;;;;;23.00;13.47;;;7.90;84.10;;;;;;5071690;28;20477;-86
2021/04/02 11:04:04;;;;;;;20.67;8.77;;;7.90;83.70;;;;;;5070685;28;20064;-86
2021/04/02 11:06:30;;;;;;;14.57;6.20;;;8.00;83.50;;;;;;5071919;28;20382;-86
2021/04/02 11:08:55;;;;;;;11.17;5.43;;;8.10;83.50;;;;;;5053663;28;20114;-87
2021/04/02 11:11:21;;;;;;;13.97;5.47;;;8.00;83.60;;;;;;5053816;28;20257;-86
2021/04/02 11:13:47;;;;;;;12.93;6.10;;;7.90;84.60;;;;;;5071946;28;20021;-87
2021/04/02 11:16:12;;;;;;;12.63;4.60;;;8.00;83.10;;;;;;5072157;28;20052;-86
2021/04/02 11:18:41;;;;;;;11.60;3.77;;;8.00;82.70;;;;;;5072200;28;20489;-87
2021/04/02 11:21:07;;;;;;;10.73;4.93;;;8.20;82.40;;;;;;5053564;28;20025;-86
2021/04/02 11:23:32;;;;;;;12.37;6.13;;;8.30;81.30;;;;;;5072001;28;20112;-87
2021/04/02 11:25:58;;;;;;;9.43;4.00;;;8.30;81.30;;;;;;5074627;28;20051;-87
2021/04/02 11:28:24;;;;;;;18.50;8.67;;;8.40;81.00;;;;;;5058049;28;20024;-86
2021/04/02 11:30:50;;;;;;;18.87;10.63;;;8.40;80.80;;;;;;5075002;28;20104;-87
2021/04/02 11:33:15;;;;;;;19.27;9.60;;;8.30;80.90;;;;;;5074315;28;20028;-87
2021/04/02 11:35:41;;;;;;;17.17;8.80;;;8.30;80.90;;;;;;5075698;28;20074;-87
2021/04/02 11:38:07;;;;;;;10.73;5.50;;;8.30;81.10;;;;;;5057864;28;20024;-87
2021/04/02 11:40:34;;;;;;;11.77;5.00;;;8.20;81.30;;;;;;5057102;28;20111;-86
2021/04/02 11:42:59;;;;;;;14.93;4.30;;;8.20;82.00;;;;;;5075633;28;20035;-87
2021/04/02 11:45:25;;;;;;;9.30;4.43;;;8.20;81.60;;;;;;5075260;28;20024;-86
2021/04/02 11:47:51;;;;;;;11.10;4.27;;;8.20;81.30;;;;;;5057651;28;20035;-87
2021/04/02 11:50:16;;;;;;;11.93;4.37;;;8.10;80.60;;;;;;5073853;28;20028;-87
2021/04/02 11:52:42;;;;;;;11.33;4.73;;;8.00;81.00;;;;;;5056924;28;20111;-86
2021/04/02 11:55:09;;;;;;;14.13;4.70;;;7.90;81.70;;;;;;5075245;28;20036;-87
2021/04/02 11:57:38;;;;;;;11.17;4.77;;;8.00;81.20;;;;;;5057238;28;20107;-86
2021/04/02 12:00:09;;;;;;;12.80;3.95;;;8.10;80.50;;;;;;5076217;28;20100;-87
2021/04/02 12:02:35;;;;;;;9.57;3.60;;;8.20;79.60;;;;;;5076473;28;20167;-87
2021/04/02 12:05:01;;;;;;;9.23;3.70;;;8.20;79.70;;;;;;5058171;28;20052;-87
2021/04/02 12:07:27;;;;;;;11.13;3.70;;;8.40;78.40;;;;;;5057816;28;20029;-87
2021/04/02 12:09:53;;;;;;;13.17;3.43;;;8.50;77.70;;;;;;5075106;28;20029;-87
2021/04/02 12:12:18;;;;;;;10.00;3.30;;;8.30;75.90;;;;;;5074528;28;20024;-86
2021/04/02 12:14:44;;;;;;;10.83;3.50;;;8.30;75.80;;;;;;5074356;28;20099;-87
2021/04/02 12:17:10;;;;;;;12.13;3.50;;;8.50;75.40;;;;;;5056690;28;20036;-86
2021/04/02 12:19:35;;;;;;;11.57;4.03;;;8.60;74.30;;;;;;5074017;28;20055;-87
2021/04/02 12:22:01;;;;;;;14.87;3.33;;;8.60;73.10;;;;;;5056435;28;20033;-86
2021/04/02 12:24:28;;;;;;;9.17;3.13;;;8.70;73.30;;;;;;5074324;28;20066;-86
2021/04/02 12:26:54;;;;;;;10.93;3.73;;;8.70;72.50;;;;;;5056438;28;20070;-87
2021/04/02 12:29:19;;;;;;;10.93;3.70;;;8.90;72.70;;;;;;5056682;28;20540;-87
2021/04/02 12:31:45;;;;;;;10.83;3.77;;;8.90;72.00;;;;;;5056433;28;20123;-87
2021/04/02 12:34:11;;;;;;;11.67;3.43;;;9.00;71.90;;;;;;5075929;28;20020;-87
2021/04/02 12:36:36;;;;;;;9.60;3.30;;;8.80;71.30;;;;;;5075634;28;20025;-86
2021/04/02 12:39:03;;;;;;;7.00;3.33;;;8.80;72.30;;;;;;5075150;28;20029;-87
2021/04/02 12:41:29;;;;;;;8.77;3.60;;;8.80;72.30;;;;;;5075659;28;20481;-87
2021/04/02 12:43:55;;;;;;;7.37;3.60;;;8.90;71.70;;;;;;5075979;28;20050;-87
2021/04/02 12:46:21;;;;;;;8.83;3.23;;;8.80;72.00;;;;;;5076423;28;20027;-86
2021/04/02 12:52:10;;;;;;;9.07;2.42;;;8.80;71.40;;;;;;5032218;28;20040;-87
2021/04/02 12:54:37;;;;;;;9.93;3.47;;;8.70;71.00;;;;;;5015116;28;20032;-86
2021/04/02 12:57:04;;;;;;;12.00;4.77;;;8.80;71.50;;;;;;5063006;28;20032;-86
2021/04/02 12:59:29;;;;;;;10.43;4.60;;;8.70;72.00;;;;;;5055468;28;20023;-86
2021/04/02 13:01:55;;;;;;;11.40;3.97;;;8.80;71.60;;;;;;5073829;28;20103;-87
2021/04/02 13:04:21;;;;;;;9.23;3.30;;;8.70;71.70;;;;;;5055780;28;20510;-87
2021/04/02 13:06:46;;;;;;;24.63;8.80;;;8.60;71.80;;;;;;5055740;28;20021;-87
2021/04/02 13:09:12;;;;;;;14.70;3.90;;;8.50;72.20;;;;;;5054825;28;20048;-86
2021/04/02 13:11:38;;;;;;;6.10;2.67;;;8.60;71.30;;;;;;5072172;28;20021;-86
2021/04/02 13:14:06;;;;;;;10.07;3.50;;;8.40;71.10;;;;;;5073592;28;20115;-87
2021/04/02 13:16:32;;;;;;;14.18;4.57;;;8.60;71.30;;;;;;5073526;28;20017;-87
2021/04/02 13:18:58;;;;;;;13.47;5.40;;;8.50;71.30;;;;;;5072208;28;20390;-87
2021/04/02 13:21:23;;;;;;;10.27;2.60;;;8.60;71.40;;;;;;5073742;28;20474;-87
2021/04/02 13:23:49;;;;;;;10.30;3.77;;;8.40;71.40;;;;;;5073445;28;20016;-87
2021/04/02 13:26:14;;;;;;;9.33;2.40;;;8.20;71.80;;;;;;5073383;28;20035;-86
2021/04/02 13:28:40;;;;;;;10.90;2.67;;;8.30;71.30;;;;;;5055844;28;20028;-87
2021/04/02 13:31:06;;;;;;;10.60;4.33;;;8.30;71.30;;;;;;5073191;28;20104;-87
2021/04/02 13:33:33;;;;;;;8.00;2.87;;;8.20;71.30;;;;;;5073805;28;20028;-87
2021/04/02 13:35:59;;;;;;;11.77;3.10;;;8.30;71.10;;;;;;5079755;22;20132;-83
2021/04/02 13:38:25;;;;;;;9.60;2.87;;;8.50;71.20;;;;;;5038374;28;20052;-83
2021/04/02 13:40:51;;;;;;;9.70;2.80;;;8.50;71.10;;;;;;5037650;28;20040;-83
2021/04/02 13:43:16;;;;;;;9.30;2.70;;;8.50;70.90;;;;;;5056134;28;20036;-84
2021/04/02 13:45:42;;;;;;;10.63;3.07;;;8.40;71.10;;;;;;5053712;28;20039;-84
2021/04/02 13:48:08;;;;;;;7.83;2.60;;;8.50;71.10;;;;;;5076427;28;20025;-84
2021/04/02 13:50:34;;;;;;;10.83;2.83;;;8.40;71.50;;;;;;5057097;28;20024;-84
2021/04/02 13:53:01;;;;;;;8.50;2.60;;;8.40;71.20;;;;;;5076388;28;20040;-84
2021/04/02 13:55:27;;;;;;;8.30;2.77;;;8.60;70.20;;;;;;5076081;28;20017;-84
2021/04/02 13:57:53;;;;;;;8.47;2.77;;;8.60;69.90;;;;;;5058159;28;20074;-83
2021/04/02 14:00:22;;;;;;;7.93;3.20;;;8.80;69.50;;;;;;5056280;28;20020;-83
2021/04/02 14:02:49;;;;;;;11.52;3.22;;;8.60;68.50;;;;;;5057247;28;20496;-84
2021/04/02 14:05:16;;;;;;;7.23;2.97;;;8.70;68.70;;;;;;5057129;28;20524;-85
2021/04/02 14:07:43;;;;;;;7.20;2.90;;;8.80;69.30;;;;;;5057570;28;20037;-83
2021/04/02 14:10:09;;;;;;;9.23;2.73;;;8.80;68.90;;;;;;5056841;28;20029;-83
2021/04/02 14:12:35;;;;;;;12.50;3.60;;;8.80;69.70;;;;;;5056363;28;20031;-83
2021/04/02 14:15:01;;;;;;;8.50;3.47;;;8.90;69.30;;;;;;5073365;28;20025;-83
2021/04/02 14:17:27;;;;;;;7.07;2.80;;;8.90;69.20;;;;;;5054111;28;20031;-84
2021/04/02 14:19:53;;;;;;;11.27;3.10;;;8.90;69.30;;;;;;5071686;28;20035;-84
2021/04/02 14:22:19;;;;;;;9.70;3.13;;;8.70;68.80;;;;;;5054453;28;20028;-84
2021/04/02 14:24:44;;;;;;;11.00;2.80;;;8.70;69.20;;;;;;5054440;28;20054;-85
2021/04/02 14:27:10;;;;;;;8.90;2.90;;;8.70;69.10;;;;;;5054622;28;20031;-84
2021/04/02 14:29:36;;;;;;;9.27;2.90;;;8.80;69.10;;;;;;5053619;28;20028;-84
2021/04/02 14:32:02;;;;;;;15.03;4.07;;;8.90;68.60;;;;;;5054051;28;20123;-84
2021/04/02 14:34:27;;;;;;;8.57;3.63;;;8.90;68.60;;;;;;5054111;28;20116;-83
2021/04/02 14:36:54;;;;;;;11.23;3.73;;;8.90;67.70;;;;;;5074475;28;20048;-83
2021/04/02 14:39:20;;;;;;;10.67;4.67;;;8.80;67.70;;;;;;5057618;28;20024;-84
2021/04/02 14:41:46;;;;;;;12.80;4.90;;;8.90;68.20;;;;;;5073751;28;20035;-84
2021/04/02 14:44:20;;;;;;;15.80;4.03;;;8.90;68.00;;;;;;5076510;28;20033;-84
2021/04/02 14:46:46;;;;;;;10.80;3.60;;;9.00;67.70;;;;;;5057240;28;20146;-83
2021/04/02 14:49:11;;;;;;;7.73;3.43;;;8.90;68.30;;;;;;5055912;28;20074;-86
2021/04/02 14:51:37;;;;;;;10.23;4.30;;;9.10;68.80;;;;;;5054154;28;20082;-86
2021/04/02 14:54:03;;;;;;;21.47;4.93;;;9.00;69.40;;;;;;5055028;28;20115;-86
2021/04/02 14:56:28;;;;;;;18.80;4.40;;;8.80;69.20;;;;;;5054736;28;20028;-83
2021/04/02 14:58:54;;;;;;;14.77;5.97;;;8.80;69.80;;;;;;5056842;28;20074;-84
2021/04/02 15:01:20;;;;;;;13.00;4.80;;;8.90;69.70;;;;;;5076041;28;20028;-85
2021/04/02 15:03:48;;;;;;;12.57;4.23;;;8.90;69.50;;;;;;5075632;28;20025;-86
2021/04/02 15:06:15;;;;;;;9.80;4.27;;;9.00;69.40;;;;;;5057506;28;20048;-84
2021/04/02 15:08:40;;;;;;;11.20;3.43;;;9.10;69.80;;;;;;5057811;28;20024;-84
2021/04/02 15:11:06;;;;;;;14.57;4.23;;;9.00;69.70;;;;;;5057146;28;20028;-84